sensor_id;sensor_type;location;lat;lon;timestamp;P1;P2;P0
76784;PMS7003;66893;44.316;0.092;2023-02-28T00:02:08;37.25;31.75;20.75
76784;PMS7003;66893;44.316;0.092;2023-02-28T00:04:34;31.00;27.25;20.25
76784;PMS7003;66893;44.316;0.092;2023-02-28T00:07:00;31.75;29.75;20.75
76784;PMS7003;66893;44.316;0.092;2023-02-28T00:09:25;33.75;30.25;20.00
76784;PMS7003;66893;44.316;0.092;2023-02-28T00:11:51;29.50;26.00;19.75
76784;PMS7003;66893;44.316;0.092;2023-02-28T00:14:16;39.00;30.50;20.50
76784;PMS7003;66893;44.316;0.092;2023-02-28T00:16:41;33.50;29.00;21.75
76784;PMS7003;66893;44.316;0.092;2023-02-28T00:19:07;31.75;18.75;12.00
76784;PMS7003;66893;44.316;0.092;2023-02-28T00:21:32;34.75;33.00;22.00
76784;PMS7003;66893;44.316;0.092;2023-02-28T00:23:58;38.75;31.00;21.50
76784;PMS7003;66893;44.316;0.092;2023-02-28T00:26:23;32.25;29.75;21.75
76784;PMS7003;66893;44.316;0.092;2023-02-28T00:28:49;30.00;27.50;19.00
76784;PMS7003;66893;44.316;0.092;2023-02-28T00:31:17;31.25;30.00;21.00
76784;PMS7003;66893;44.316;0.092;2023-02-28T00:33:43;32.50;29.75;22.00
76784;PMS7003;66893;44.316;0.092;2023-02-28T00:36:09;29.00;26.75;19.75
76784;PMS7003;66893;44.316;0.092;2023-02-28T00:38:36;29.00;27.75;20.00
76784;PMS7003;66893;44.316;0.092;2023-02-28T00:41:02;23.00;23.00;16.50
76784;PMS7003;66893;44.316;0.092;2023-02-28T00:43:29;28.50;26.50;19.00
76784;PMS7003;66893;44.316;0.092;2023-02-28T00:45:56;22.50;19.75;14.00
76784;PMS7003;66893;44.316;0.092;2023-02-28T00:48:21;26.75;24.00;18.00
76784;PMS7003;66893;44.316;0.092;2023-02-28T00:50:49;27.50;24.00;17.75
76784;PMS7003;66893;44.316;0.092;2023-02-28T00:53:15;24.75;22.50;16.75
76784;PMS7003;66893;44.316;0.092;2023-02-28T00:55:40;23.75;22.75;17.00
76784;PMS7003;66893;44.316;0.092;2023-02-28T00:58:06;29.00;25.75;18.75
76784;PMS7003;66893;44.316;0.092;2023-02-28T01:00:31;27.25;22.00;16.00
76784;PMS7003;66893;44.316;0.092;2023-02-28T01:02:57;28.25;23.25;16.50
76784;PMS7003;66893;44.316;0.092;2023-02-28T01:05:22;24.25;22.00;17.00
76784;PMS7003;66893;44.316;0.092;2023-02-28T01:07:47;24.75;21.00;17.00
76784;PMS7003;66893;44.316;0.092;2023-02-28T01:10:13;24.00;20.75;15.25
76784;PMS7003;66893;44.316;0.092;2023-02-28T01:12:38;26.75;23.75;17.50
76784;PMS7003;66893;44.316;0.092;2023-02-28T01:15:04;27.25;21.25;16.75
76784;PMS7003;66893;44.316;0.092;2023-02-28T01:17:30;24.00;21.75;16.25
76784;PMS7003;66893;44.316;0.092;2023-02-28T01:19:55;24.00;20.00;15.75
76784;PMS7003;66893;44.316;0.092;2023-02-28T01:22:21;21.00;20.50;15.25
76784;PMS7003;66893;44.316;0.092;2023-02-28T01:24:46;22.25;17.00;12.25
76784;PMS7003;66893;44.316;0.092;2023-02-28T01:27:12;19.25;19.00;14.00
76784;PMS7003;66893;44.316;0.092;2023-02-28T01:29:38;23.75;19.50;14.50
76784;PMS7003;66893;44.316;0.092;2023-02-28T01:32:04;18.25;18.00;12.25
76784;PMS7003;66893;44.316;0.092;2023-02-28T01:34:29;24.75;21.00;15.25
76784;PMS7003;66893;44.316;0.092;2023-02-28T01:36:55;20.25;19.25;15.00
76784;PMS7003;66893;44.316;0.092;2023-02-28T01:39:20;19.75;17.75;13.00
76784;PMS7003;66893;44.316;0.092;2023-02-28T01:41:46;18.75;17.00;13.75
76784;PMS7003;66893;44.316;0.092;2023-02-28T01:47:15;20.00;18.50;13.00
76784;PMS7003;66893;44.316;0.092;2023-02-28T01:49:40;18.75;16.75;13.00
76784;PMS7003;66893;44.316;0.092;2023-02-28T01:52:07;20.00;19.00;16.00
76784;PMS7003;66893;44.316;0.092;2023-02-28T01:54:39;25.75;21.75;14.25
76784;PMS7003;66893;44.316;0.092;2023-02-28T01:57:10;19.50;19.50;13.75
76784;PMS7003;66893;44.316;0.092;2023-02-28T01:59:52;20.75;17.75;12.75
76784;PMS7003;66893;44.316;0.092;2023-02-28T02:02:29;24.50;20.50;14.50
76784;PMS7003;66893;44.316;0.092;2023-02-28T02:07:37;23.75;21.00;14.50
76784;PMS7003;66893;44.316;0.092;2023-02-28T02:22:00;20.75;20.50;16.75
76784;PMS7003;66893;44.316;0.092;2023-02-28T02:26:58;21.25;18.25;12.75
76784;PMS7003;66893;44.316;0.092;2023-02-28T02:35:24;24.75;21.00;14.00
76784;PMS7003;66893;44.316;0.092;2023-02-28T02:43:56;17.50;16.75;12.75
76784;PMS7003;66893;44.316;0.092;2023-02-28T02:46:28;17.75;17.00;11.00
76784;PMS7003;66893;44.316;0.092;2023-02-28T02:49:03;19.75;19.00;13.50
76784;PMS7003;66893;44.316;0.092;2023-02-28T02:51:32;20.00;16.25;11.75
76784;PMS7003;66893;44.316;0.092;2023-02-28T02:54:08;17.75;17.00;13.00
76784;PMS7003;66893;44.316;0.092;2023-02-28T02:56:41;16.75;16.25;11.75
76784;PMS7003;66893;44.316;0.092;2023-02-28T02:59:10;18.25;18.25;13.50
76784;PMS7003;66893;44.316;0.092;2023-02-28T03:01:38;18.00;17.00;11.25
76784;PMS7003;66893;44.316;0.092;2023-02-28T03:04:08;18.25;18.00;13.50
76784;PMS7003;66893;44.316;0.092;2023-02-28T03:06:36;18.75;18.00;13.25
76784;PMS7003;66893;44.316;0.092;2023-02-28T03:09:02;17.75;17.75;12.75
76784;PMS7003;66893;44.316;0.092;2023-02-28T03:11:29;17.75;17.75;12.25
76784;PMS7003;66893;44.316;0.092;2023-02-28T03:19:12;21.25;16.75;12.75
76784;PMS7003;66893;44.316;0.092;2023-02-28T03:27:25;21.50;19.00;13.50
76784;PMS7003;66893;44.316;0.092;2023-02-28T03:30:03;20.00;15.75;11.75
76784;PMS7003;66893;44.316;0.092;2023-02-28T03:35:21;25.25;18.75;12.25
76784;PMS7003;66893;44.316;0.092;2023-02-28T03:37:52;19.75;16.50;11.25
76784;PMS7003;66893;44.316;0.092;2023-02-28T03:40:25;23.75;22.75;14.25
76784;PMS7003;66893;44.316;0.092;2023-02-28T03:42:57;19.50;17.75;12.00
76784;PMS7003;66893;44.316;0.092;2023-02-28T03:45:30;22.50;20.50;15.00
76784;PMS7003;66893;44.316;0.092;2023-02-28T03:48:02;19.50;17.75;13.25
76784;PMS7003;66893;44.316;0.092;2023-02-28T03:50:38;20.25;19.75;16.00
76784;PMS7003;66893;44.316;0.092;2023-02-28T03:55:54;19.75;17.25;12.50
76784;PMS7003;66893;44.316;0.092;2023-02-28T03:58:42;24.00;19.75;15.00
76784;PMS7003;66893;44.316;0.092;2023-02-28T04:01:19;25.75;19.25;12.75
76784;PMS7003;66893;44.316;0.092;2023-02-28T04:03:49;17.75;17.25;12.25
76784;PMS7003;66893;44.316;0.092;2023-02-28T04:06:16;23.25;17.50;13.00
76784;PMS7003;66893;44.316;0.092;2023-02-28T04:08:46;27.00;26.50;16.00
76784;PMS7003;66893;44.316;0.092;2023-02-28T04:11:54;19.00;17.25;12.25
76784;PMS7003;66893;44.316;0.092;2023-02-28T04:14:04;20.25;18.25;15.00
76784;PMS7003;66893;44.316;0.092;2023-02-28T04:16:31;21.50;19.25;15.75
76784;PMS7003;66893;44.316;0.092;2023-02-28T04:18:57;20.50;18.00;13.25
76784;PMS7003;66893;44.316;0.092;2023-02-28T04:21:30;20.25;18.25;14.75
76784;PMS7003;66893;44.316;0.092;2023-02-28T04:24:00;23.25;22.50;16.00
76784;PMS7003;66893;44.316;0.092;2023-02-28T04:26:32;21.50;19.00;14.00
76784;PMS7003;66893;44.316;0.092;2023-02-28T04:28:59;20.25;19.00;14.75
76784;PMS7003;66893;44.316;0.092;2023-02-28T04:31:25;22.00;19.00;14.00
76784;PMS7003;66893;44.316;0.092;2023-02-28T04:33:51;16.50;16.50;12.75
76784;PMS7003;66893;44.316;0.092;2023-02-28T04:36:17;21.75;21.00;15.75
76784;PMS7003;66893;44.316;0.092;2023-02-28T04:38:43;23.50;20.75;15.25
76784;PMS7003;66893;44.316;0.092;2023-02-28T04:41:10;21.00;17.00;11.50
76784;PMS7003;66893;44.316;0.092;2023-02-28T04:43:35;21.25;18.75;15.00
76784;PMS7003;66893;44.316;0.092;2023-02-28T04:46:01;24.75;21.25;14.25
76784;PMS7003;66893;44.316;0.092;2023-02-28T04:48:28;25.50;21.50;14.25
76784;PMS7003;66893;44.316;0.092;2023-02-28T04:50:55;20.00;16.00;12.25
76784;PMS7003;66893;44.316;0.092;2023-02-28T04:53:24;22.25;19.50;15.00
76784;PMS7003;66893;44.316;0.092;2023-02-28T04:55:50;22.50;19.00;12.25
76784;PMS7003;66893;44.316;0.092;2023-02-28T04:58:15;21.75;17.00;12.00
76784;PMS7003;66893;44.316;0.092;2023-02-28T05:00:41;15.75;14.75;11.25
76784;PMS7003;66893;44.316;0.092;2023-02-28T05:03:06;19.75;17.00;14.00
76784;PMS7003;66893;44.316;0.092;2023-02-28T05:05:32;20.75;19.25;15.50
76784;PMS7003;66893;44.316;0.092;2023-02-28T05:07:57;22.00;19.25;12.00
76784;PMS7003;66893;44.316;0.092;2023-02-28T05:10:23;22.75;21.75;16.50
76784;PMS7003;66893;44.316;0.092;2023-02-28T05:12:48;23.00;20.75;14.50
76784;PMS7003;66893;44.316;0.092;2023-02-28T05:15:14;21.50;21.50;16.00
76784;PMS7003;66893;44.316;0.092;2023-02-28T05:17:41;27.00;25.00;17.50
76784;PMS7003;66893;44.316;0.092;2023-02-28T05:20:07;21.25;20.50;15.00
76784;PMS7003;66893;44.316;0.092;2023-02-28T05:22:36;25.25;21.75;15.75
76784;PMS7003;66893;44.316;0.092;2023-02-28T05:25:02;24.00;18.00;14.00
76784;PMS7003;66893;44.316;0.092;2023-02-28T05:27:29;28.75;24.75;16.75
76784;PMS7003;66893;44.316;0.092;2023-02-28T05:29:55;17.75;17.25;12.25
76784;PMS7003;66893;44.316;0.092;2023-02-28T05:32:21;24.75;20.75;14.50
76784;PMS7003;66893;44.316;0.092;2023-02-28T05:34:46;21.00;19.00;14.25
76784;PMS7003;66893;44.316;0.092;2023-02-28T05:37:12;30.00;24.00;17.75
76784;PMS7003;66893;44.316;0.092;2023-02-28T05:39:39;25.75;23.00;16.00
76784;PMS7003;66893;44.316;0.092;2023-02-28T05:42:04;25.75;25.00;16.25
76784;PMS7003;66893;44.316;0.092;2023-02-28T05:44:30;29.75;26.00;17.25
76784;PMS7003;66893;44.316;0.092;2023-02-28T05:46:55;30.00;26.00;16.25
76784;PMS7003;66893;44.316;0.092;2023-02-28T05:49:21;26.00;24.00;17.00
76784;PMS7003;66893;44.316;0.092;2023-02-28T05:51:47;17.25;15.25;9.00
76784;PMS7003;66893;44.316;0.092;2023-02-28T05:54:12;25.75;23.25;16.50
76784;PMS7003;66893;44.316;0.092;2023-02-28T05:56:38;25.00;21.75;17.75
76784;PMS7003;66893;44.316;0.092;2023-02-28T05:59:05;26.25;24.00;18.50
76784;PMS7003;66893;44.316;0.092;2023-02-28T06:01:35;22.25;20.75;15.75
76784;PMS7003;66893;44.316;0.092;2023-02-28T06:04:06;24.25;19.50;15.00
76784;PMS7003;66893;44.316;0.092;2023-02-28T06:06:33;24.75;21.75;15.00
76784;PMS7003;66893;44.316;0.092;2023-02-28T06:09:02;28.25;23.50;16.00
76784;PMS7003;66893;44.316;0.092;2023-02-28T06:11:31;26.75;23.50;17.00
76784;PMS7003;66893;44.316;0.092;2023-02-28T06:13:57;23.25;20.50;16.25
76784;PMS7003;66893;44.316;0.092;2023-02-28T06:16:27;24.75;21.75;16.00
76784;PMS7003;66893;44.316;0.092;2023-02-28T06:18:56;26.75;24.25;17.00
76784;PMS7003;66893;44.316;0.092;2023-02-28T06:21:22;22.00;21.75;16.50
76784;PMS7003;66893;44.316;0.092;2023-02-28T06:23:48;22.75;22.75;16.25
76784;PMS7003;66893;44.316;0.092;2023-02-28T06:26:13;16.25;14.50;12.25
76784;PMS7003;66893;44.316;0.092;2023-02-28T06:28:39;18.00;18.00;14.75
76784;PMS7003;66893;44.316;0.092;2023-02-28T06:31:08;21.00;20.25;16.00
76784;PMS7003;66893;44.316;0.092;2023-02-28T06:33:35;21.00;21.00;16.25
76784;PMS7003;66893;44.316;0.092;2023-02-28T06:36:02;27.25;23.00;15.75
76784;PMS7003;66893;44.316;0.092;2023-02-28T06:38:28;28.25;24.75;17.25
76784;PMS7003;66893;44.316;0.092;2023-02-28T06:40:54;29.00;27.50;21.00
76784;PMS7003;66893;44.316;0.092;2023-02-28T06:43:22;31.25;29.00;17.50
76784;PMS7003;66893;44.316;0.092;2023-02-28T06:45:48;37.25;31.25;21.25
76784;PMS7003;66893;44.316;0.092;2023-02-28T06:48:14;30.25;28.50;18.00
76784;PMS7003;66893;44.316;0.092;2023-02-28T06:50:39;27.50;25.00;18.25
76784;PMS7003;66893;44.316;0.092;2023-02-28T06:53:05;31.25;30.25;21.75
76784;PMS7003;66893;44.316;0.092;2023-02-28T06:55:31;29.75;25.50;18.50
76784;PMS7003;66893;44.316;0.092;2023-02-28T06:57:57;32.50;28.75;20.50
76784;PMS7003;66893;44.316;0.092;2023-02-28T07:00:23;32.00;31.00;21.00
76784;PMS7003;66893;44.316;0.092;2023-02-28T07:02:50;32.75;27.25;18.75
76784;PMS7003;66893;44.316;0.092;2023-02-28T07:05:16;29.25;27.00;19.50
76784;PMS7003;66893;44.316;0.092;2023-02-28T07:07:41;35.75;30.50;20.50
76784;PMS7003;66893;44.316;0.092;2023-02-28T07:10:12;29.25;25.25;18.25
76784;PMS7003;66893;44.316;0.092;2023-02-28T07:12:38;33.25;29.75;19.25
76784;PMS7003;66893;44.316;0.092;2023-02-28T07:15:04;30.75;27.75;18.00
76784;PMS7003;66893;44.316;0.092;2023-02-28T07:17:30;31.75;27.00;20.00
76784;PMS7003;66893;44.316;0.092;2023-02-28T07:19:56;32.00;28.25;17.00
76784;PMS7003;66893;44.316;0.092;2023-02-28T07:22:21;28.25;28.25;18.75
76784;PMS7003;66893;44.316;0.092;2023-02-28T07:24:47;30.75;28.25;19.25
76784;PMS7003;66893;44.316;0.092;2023-02-28T07:27:13;25.75;23.50;17.75
76784;PMS7003;66893;44.316;0.092;2023-02-28T07:29:48;29.25;24.25;17.75
76784;PMS7003;66893;44.316;0.092;2023-02-28T07:32:17;24.25;22.75;16.00
76784;PMS7003;66893;44.316;0.092;2023-02-28T07:34:43;27.50;23.25;17.50
76784;PMS7003;66893;44.316;0.092;2023-02-28T07:37:09;24.00;23.00;15.00
76784;PMS7003;66893;44.316;0.092;2023-02-28T07:39:35;24.00;21.50;15.50
76784;PMS7003;66893;44.316;0.092;2023-02-28T07:42:04;26.00;23.00;17.00
76784;PMS7003;66893;44.316;0.092;2023-02-28T07:44:31;27.25;21.25;16.75
76784;PMS7003;66893;44.316;0.092;2023-02-28T07:46:57;19.00;17.00;14.00
76784;PMS7003;66893;44.316;0.092;2023-02-28T07:49:23;23.00;21.75;15.00
76784;PMS7003;66893;44.316;0.092;2023-02-28T07:51:48;23.50;22.00;15.25
76784;PMS7003;66893;44.316;0.092;2023-02-28T07:54:14;21.75;19.75;15.00
76784;PMS7003;66893;44.316;0.092;2023-02-28T07:56:39;22.25;20.25;16.00
76784;PMS7003;66893;44.316;0.092;2023-02-28T07:59:05;22.25;20.00;14.00
76784;PMS7003;66893;44.316;0.092;2023-02-28T08:01:30;21.50;21.50;16.75
76784;PMS7003;66893;44.316;0.092;2023-02-28T08:03:56;18.00;16.00;13.75
76784;PMS7003;66893;44.316;0.092;2023-02-28T08:06:24;10.00;7.25;2.75
76784;PMS7003;66893;44.316;0.092;2023-02-28T08:08:51;18.50;13.50;11.25
76784;PMS7003;66893;44.316;0.092;2023-02-28T08:11:18;25.50;19.25;14.75
76784;PMS7003;66893;44.316;0.092;2023-02-28T08:13:44;24.50;23.25;15.50
76784;PMS7003;66893;44.316;0.092;2023-02-28T08:16:10;20.00;19.75;13.25
76784;PMS7003;66893;44.316;0.092;2023-02-28T08:18:37;24.25;22.50;15.75
76784;PMS7003;66893;44.316;0.092;2023-02-28T08:21:06;22.25;19.50;15.75
76784;PMS7003;66893;44.316;0.092;2023-02-28T08:23:33;23.00;22.50;15.50
76784;PMS7003;66893;44.316;0.092;2023-02-28T08:25:58;21.25;21.25;15.00
76784;PMS7003;66893;44.316;0.092;2023-02-28T08:28:24;24.50;23.25;16.25
76784;PMS7003;66893;44.316;0.092;2023-02-28T08:30:49;23.75;22.00;16.00
76784;PMS7003;66893;44.316;0.092;2023-02-28T08:33:15;26.50;24.00;19.00
76784;PMS7003;66893;44.316;0.092;2023-02-28T08:35:40;24.00;22.00;16.00
76784;PMS7003;66893;44.316;0.092;2023-02-28T08:38:06;28.00;26.00;18.50
76784;PMS7003;66893;44.316;0.092;2023-02-28T08:40:31;29.25;26.25;18.25
76784;PMS7003;66893;44.316;0.092;2023-02-28T08:42:57;24.00;22.75;13.00
76784;PMS7003;66893;44.316;0.092;2023-02-28T08:45:23;24.25;21.25;16.50
76784;PMS7003;66893;44.316;0.092;2023-02-28T08:47:49;23.00;22.25;16.50
76784;PMS7003;66893;44.316;0.092;2023-02-28T08:50:17;21.50;19.00;15.50
76784;PMS7003;66893;44.316;0.092;2023-02-28T08:52:43;25.25;21.25;16.00
76784;PMS7003;66893;44.316;0.092;2023-02-28T08:55:09;21.50;17.75;13.50
76784;PMS7003;66893;44.316;0.092;2023-02-28T08:57:35;20.00;19.25;14.50
76784;PMS7003;66893;44.316;0.092;2023-02-28T09:00:00;23.50;21.50;13.00
76784;PMS7003;66893;44.316;0.092;2023-02-28T09:02:29;19.50;18.00;11.25
76784;PMS7003;66893;44.316;0.092;2023-02-28T09:04:57;22.75;20.00;14.00
76784;PMS7003;66893;44.316;0.092;2023-02-28T09:07:23;19.50;17.25;12.50
76784;PMS7003;66893;44.316;0.092;2023-02-28T09:09:49;18.50;16.00;11.00
76784;PMS7003;66893;44.316;0.092;2023-02-28T09:12:25;21.00;18.75;12.00
76784;PMS7003;66893;44.316;0.092;2023-02-28T09:14:57;19.75;17.00;13.00
76784;PMS7003;66893;44.316;0.092;2023-02-28T09:17:22;26.50;23.00;15.75
76784;PMS7003;66893;44.316;0.092;2023-02-28T09:19:48;25.50;20.50;13.25
76784;PMS7003;66893;44.316;0.092;2023-02-28T09:22:14;22.75;22.50;14.75
76784;PMS7003;66893;44.316;0.092;2023-02-28T09:24:39;21.25;19.00;13.00
76784;PMS7003;66893;44.316;0.092;2023-02-28T09:27:05;20.25;19.00;12.75
76784;PMS7003;66893;44.316;0.092;2023-02-28T09:29:31;30.00;22.25;13.50
76784;PMS7003;66893;44.316;0.092;2023-02-28T09:31:57;16.75;16.75;11.25
76784;PMS7003;66893;44.316;0.092;2023-02-28T09:34:23;20.75;17.75;10.75
76784;PMS7003;66893;44.316;0.092;2023-02-28T09:36:52;19.25;16.00;12.00
76784;PMS7003;66893;44.316;0.092;2023-02-28T09:39:20;18.00;15.25;11.00
76784;PMS7003;66893;44.316;0.092;2023-02-28T09:41:47;18.00;17.25;11.00
76784;PMS7003;66893;44.316;0.092;2023-02-28T09:44:22;13.25;13.25;10.50
76784;PMS7003;66893;44.316;0.092;2023-02-28T09:47:11;18.25;13.50;11.00
76784;PMS7003;66893;44.316;0.092;2023-02-28T09:49:47;16.25;14.25;10.50
76784;PMS7003;66893;44.316;0.092;2023-02-28T09:52:14;20.75;17.50;11.25
76784;PMS7003;66893;44.316;0.092;2023-02-28T09:54:44;21.00;16.25;12.00
76784;PMS7003;66893;44.316;0.092;2023-02-28T10:05:01;11.00;10.50;7.00
76784;PMS7003;66893;44.316;0.092;2023-02-28T10:13:26;15.00;15.00;11.75
76784;PMS7003;66893;44.316;0.092;2023-02-28T10:16:10;18.50;16.75;12.00
76784;PMS7003;66893;44.316;0.092;2023-02-28T10:24:49;11.00;11.00;7.50
76784;PMS7003;66893;44.316;0.092;2023-02-28T10:27:13;10.00;10.00;7.00
76784;PMS7003;66893;44.316;0.092;2023-02-28T10:29:40;11.75;9.75;6.00
76784;PMS7003;66893;44.316;0.092;2023-02-28T10:32:09;13.00;12.00;7.75
76784;PMS7003;66893;44.316;0.092;2023-02-28T10:34:37;14.25;12.25;8.00
76784;PMS7003;66893;44.316;0.092;2023-02-28T10:37:03;10.25;9.50;7.25
76784;PMS7003;66893;44.316;0.092;2023-02-28T10:39:45;8.75;8.25;6.50
76784;PMS7003;66893;44.316;0.092;2023-02-28T10:45:09;9.75;8.75;6.75
76784;PMS7003;66893;44.316;0.092;2023-02-28T10:52:54;9.25;9.25;7.00
76784;PMS7003;66893;44.316;0.092;2023-02-28T10:55:21;12.25;10.00;7.00
76784;PMS7003;66893;44.316;0.092;2023-02-28T10:57:49;13.25;12.50;9.00
76784;PMS7003;66893;44.316;0.092;2023-02-28T11:00:19;15.00;13.00;10.00
76784;PMS7003;66893;44.316;0.092;2023-02-28T11:02:47;14.75;14.75;11.00
76784;PMS7003;66893;44.316;0.092;2023-02-28T11:05:35;13.00;10.25;7.75
76784;PMS7003;66893;44.316;0.092;2023-02-28T11:10:39;11.00;10.25;7.25
76784;PMS7003;66893;44.316;0.092;2023-02-28T11:13:17;9.00;9.00;7.00
76784;PMS7003;66893;44.316;0.092;2023-02-28T11:15:55;14.00;8.50;7.00
76784;PMS7003;66893;44.316;0.092;2023-02-28T11:21:06;12.50;10.25;8.00
76784;PMS7003;66893;44.316;0.092;2023-02-28T11:23:34;11.00;9.25;7.50
76784;PMS7003;66893;44.316;0.092;2023-02-28T11:26:05;11.25;10.00;6.75
76784;PMS7003;66893;44.316;0.092;2023-02-28T11:28:35;9.75;8.00;6.50
76784;PMS7003;66893;44.316;0.092;2023-02-28T11:36:21;14.50;10.00;9.00
76784;PMS7003;66893;44.316;0.092;2023-02-28T11:38:49;10.00;8.25;5.50
76784;PMS7003;66893;44.316;0.092;2023-02-28T11:44:36;9.75;9.25;7.75
76784;PMS7003;66893;44.316;0.092;2023-02-28T11:52:53;11.75;9.75;8.00
76784;PMS7003;66893;44.316;0.092;2023-02-28T11:58:17;10.50;6.25;6.00
76784;PMS7003;66893;44.316;0.092;2023-02-28T12:12:00;23.50;15.25;10.00
76784;PMS7003;66893;44.316;0.092;2023-02-28T12:15:02;18.50;13.50;10.00
76784;PMS7003;66893;44.316;0.092;2023-02-28T12:17:55;24.75;20.25;13.25
76784;PMS7003;66893;44.316;0.092;2023-02-28T12:21:04;18.25;11.50;8.00
76784;PMS7003;66893;44.316;0.092;2023-02-28T12:26:41;11.50;10.50;7.00
76784;PMS7003;66893;44.316;0.092;2023-02-28T12:29:10;16.00;11.75;8.00
76784;PMS7003;66893;44.316;0.092;2023-02-28T12:31:42;14.75;11.50;8.00
76784;PMS7003;66893;44.316;0.092;2023-02-28T12:34:15;11.75;7.00;5.25
76784;PMS7003;66893;44.316;0.092;2023-02-28T12:36:45;9.75;9.75;7.50
76784;PMS7003;66893;44.316;0.092;2023-02-28T12:39:36;13.75;11.00;7.50
76784;PMS7003;66893;44.316;0.092;2023-02-28T12:42:05;12.50;12.00;8.50
76784;PMS7003;66893;44.316;0.092;2023-02-28T12:45:03;11.25;10.50;9.00
76784;PMS7003;66893;44.316;0.092;2023-02-28T12:47:35;12.25;9.75;8.00
76784;PMS7003;66893;44.316;0.092;2023-02-28T12:52:35;11.50;11.50;8.00
76784;PMS7003;66893;44.316;0.092;2023-02-28T12:55:27;11.00;11.00;8.25
76784;PMS7003;66893;44.316;0.092;2023-02-28T13:04:07;12.25;10.25;8.25
76784;PMS7003;66893;44.316;0.092;2023-02-28T13:10:03;13.00;10.75;7.75
76784;PMS7003;66893;44.316;0.092;2023-02-28T13:12:32;9.25;8.75;6.75
76784;PMS7003;66893;44.316;0.092;2023-02-28T13:15:05;10.50;10.50;7.50
76784;PMS7003;66893;44.316;0.092;2023-02-28T13:17:40;8.50;8.50;7.00
76784;PMS7003;66893;44.316;0.092;2023-02-28T13:20:14;12.75;11.25;8.00
76784;PMS7003;66893;44.316;0.092;2023-02-28T13:22:47;11.50;8.50;6.75
76784;PMS7003;66893;44.316;0.092;2023-02-28T13:27:58;10.50;8.50;7.00
76784;PMS7003;66893;44.316;0.092;2023-02-28T13:44:20;6.75;6.75;5.50
76784;PMS7003;66893;44.316;0.092;2023-02-28T13:51:55;8.50;6.00;4.75
76784;PMS7003;66893;44.316;0.092;2023-02-28T13:54:50;10.00;10.00;7.50
76784;PMS7003;66893;44.316;0.092;2023-02-28T14:00:13;8.50;7.75;6.25
76784;PMS7003;66893;44.316;0.092;2023-02-28T14:02:52;8.50;8.50;6.75
76784;PMS7003;66893;44.316;0.092;2023-02-28T14:05:34;10.00;10.00;8.00
76784;PMS7003;66893;44.316;0.092;2023-02-28T14:08:20;8.25;8.25;7.00
76784;PMS7003;66893;44.316;0.092;2023-02-28T14:10:49;7.75;7.75;6.75
76784;PMS7003;66893;44.316;0.092;2023-02-28T14:16:02;9.75;9.75;8.00
76784;PMS7003;66893;44.316;0.092;2023-02-28T14:18:34;9.25;9.25;7.50
76784;PMS7003;66893;44.316;0.092;2023-02-28T14:21:08;10.25;8.50;7.25
76784;PMS7003;66893;44.316;0.092;2023-02-28T14:23:36;12.25;11.00;7.25
76784;PMS7003;66893;44.316;0.092;2023-02-28T14:29:02;9.75;9.75;6.75
76784;PMS7003;66893;44.316;0.092;2023-02-28T14:31:53;10.00;8.75;6.50
76784;PMS7003;66893;44.316;0.092;2023-02-28T14:34:37;10.50;10.00;6.50
76784;PMS7003;66893;44.316;0.092;2023-02-28T14:37:28;13.75;11.50;7.75
76784;PMS7003;66893;44.316;0.092;2023-02-28T14:39:55;8.50;8.50;7.00
76784;PMS7003;66893;44.316;0.092;2023-02-28T14:42:30;8.50;8.00;6.50
76784;PMS7003;66893;44.316;0.092;2023-02-28T14:45:00;6.25;6.25;4.25
76784;PMS7003;66893;44.316;0.092;2023-02-28T14:47:33;10.50;8.25;6.50
76784;PMS7003;66893;44.316;0.092;2023-02-28T14:50:00;12.25;9.75;6.50
76784;PMS7003;66893;44.316;0.092;2023-02-28T14:52:29;9.75;8.50;6.50
76784;PMS7003;66893;44.316;0.092;2023-02-28T14:55:00;7.50;7.50;6.25
76784;PMS7003;66893;44.316;0.092;2023-02-28T14:57:33;10.00;9.00;7.00
76784;PMS7003;66893;44.316;0.092;2023-02-28T15:00:02;6.75;6.75;5.75
76784;PMS7003;66893;44.316;0.092;2023-02-28T15:02:30;8.75;8.50;6.50
76784;PMS7003;66893;44.316;0.092;2023-02-28T15:04:59;8.00;7.00;5.50
76784;PMS7003;66893;44.316;0.092;2023-02-28T15:07:44;10.50;10.00;7.75
76784;PMS7003;66893;44.316;0.092;2023-02-28T15:12:44;9.75;8.25;7.25
76784;PMS7003;66893;44.316;0.092;2023-02-28T15:15:21;19.25;15.00;10.75
76784;PMS7003;66893;44.316;0.092;2023-02-28T15:17:51;19.25;15.00;9.50
76784;PMS7003;66893;44.316;0.092;2023-02-28T15:20:21;11.75;10.50;8.00
76784;PMS7003;66893;44.316;0.092;2023-02-28T15:22:48;14.25;11.50;9.00
76784;PMS7003;66893;44.316;0.092;2023-02-28T15:25:18;12.00;11.00;8.50
76784;PMS7003;66893;44.316;0.092;2023-02-28T15:27:47;9.50;9.50;7.50
76784;PMS7003;66893;44.316;0.092;2023-02-28T15:36:14;7.50;7.25;6.50
76784;PMS7003;66893;44.316;0.092;2023-02-28T15:38:42;11.50;11.50;9.50
76784;PMS7003;66893;44.316;0.092;2023-02-28T15:41:28;10.75;10.75;8.75
76784;PMS7003;66893;44.316;0.092;2023-02-28T15:44:17;12.00;9.25;7.75
76784;PMS7003;66893;44.316;0.092;2023-02-28T15:47:04;11.75;11.75;8.25
76784;PMS7003;66893;44.316;0.092;2023-02-28T15:49:39;10.75;10.50;8.75
76784;PMS7003;66893;44.316;0.092;2023-02-28T15:52:12;16.00;13.25;8.75
76784;PMS7003;66893;44.316;0.092;2023-02-28T15:54:49;11.50;10.00;8.25
76784;PMS7003;66893;44.316;0.092;2023-02-28T15:57:17;12.00;9.75;8.75
76784;PMS7003;66893;44.316;0.092;2023-02-28T16:00:11;13.00;10.75;7.00
76784;PMS7003;66893;44.316;0.092;2023-02-28T16:02:37;12.00;10.25;7.00
76784;PMS7003;66893;44.316;0.092;2023-02-28T16:07:36;13.50;9.50;7.25
76784;PMS7003;66893;44.316;0.092;2023-02-28T16:10:02;12.25;9.00;7.25
76784;PMS7003;66893;44.316;0.092;2023-02-28T16:12:30;11.25;7.50;5.75
76784;PMS7003;66893;44.316;0.092;2023-02-28T16:14:58;9.75;8.50;6.50
76784;PMS7003;66893;44.316;0.092;2023-02-28T16:17:28;8.75;8.75;7.00
76784;PMS7003;66893;44.316;0.092;2023-02-28T16:19:59;7.75;7.00;6.50
76784;PMS7003;66893;44.316;0.092;2023-02-28T16:22:25;6.00;5.75;5.00
76784;PMS7003;66893;44.316;0.092;2023-02-28T16:24:51;8.25;7.50;6.50
76784;PMS7003;66893;44.316;0.092;2023-02-28T16:29:56;14.00;8.00;7.00
76784;PMS7003;66893;44.316;0.092;2023-02-28T16:32:22;10.50;9.25;7.00
76784;PMS7003;66893;44.316;0.092;2023-02-28T16:34:48;11.75;11.00;8.25
76784;PMS7003;66893;44.316;0.092;2023-02-28T16:37:14;10.75;10.25;8.00
76784;PMS7003;66893;44.316;0.092;2023-02-28T16:39:42;13.00;11.25;9.00
76784;PMS7003;66893;44.316;0.092;2023-02-28T16:42:11;11.50;10.00;8.00
76784;PMS7003;66893;44.316;0.092;2023-02-28T16:44:41;11.25;11.00;9.00
76784;PMS7003;66893;44.316;0.092;2023-02-28T16:47:08;13.00;11.25;8.25
76784;PMS7003;66893;44.316;0.092;2023-02-28T16:49:36;10.00;10.00;7.75
76784;PMS7003;66893;44.316;0.092;2023-02-28T16:52:01;9.00;9.00;7.25
76784;PMS7003;66893;44.316;0.092;2023-02-28T16:54:27;10.50;9.75;7.50
76784;PMS7003;66893;44.316;0.092;2023-02-28T16:56:52;9.00;8.75;6.00